sensor_id;sensor_type;location;lat;lon;timestamp;pressure;altitude;pressure_sealevel;temperature;humidity
46846;BME280;33947;46.804;134.252;2022-10-13T00:02:39;101791.03;;;9.55;47.07
46846;BME280;33947;46.804;134.252;2022-10-13T00:05:47;101798.91;;;9.78;46.88
46846;BME280;33947;46.804;134.252;2022-10-13T00:08:52;101794.38;;;10.02;45.64
46846;BME280;33947;46.804;134.252;2022-10-13T00:11:57;101795.16;;;10.29;45.89
46846;BME280;33947;46.804;134.252;2022-10-13T00:15:04;101787.94;;;10.54;45.15
46846;BME280;33947;46.804;134.252;2022-10-13T00:18:09;101790.50;;;10.68;44.57
46846;BME280;33947;46.804;134.252;2022-10-13T00:21:16;101775.31;;;10.84;44.48
46846;BME280;33947;46.804;134.252;2022-10-13T00:24:23;101751.97;;;11.16;43.43
46846;BME280;33947;46.804;134.252;2022-10-13T00:27:28;101748.13;;;11.45;43.41
46846;BME280;33947;46.804;134.252;2022-10-13T00:30:34;101772.13;;;11.43;42.54
46846;BME280;33947;46.804;134.252;2022-10-13T00:33:39;101768.72;;;11.29;42.49
46846;BME280;33947;46.804;134.252;2022-10-13T00:36:43;101790.28;;;11.82;42.34
46846;BME280;33947;46.804;134.252;2022-10-13T00:39:48;101767.31;;;11.77;42.12
46846;BME280;33947;46.804;134.252;2022-10-13T00:42:54;101774.72;;;12.22;42.07
46846;BME280;33947;46.804;134.252;2022-10-13T00:45:58;101759.19;;;12.52;41.02
46846;BME280;33947;46.804;134.252;2022-10-13T00:49:07;101756.56;;;13.03;40.42
46846;BME280;33947;46.804;134.252;2022-10-13T00:52:16;101750.19;;;13.14;39.37
46846;BME280;33947;46.804;134.252;2022-10-13T00:55:28;101744.53;;;13.31;38.68
46846;BME280;33947;46.804;134.252;2022-10-13T00:58:35;101733.72;;;13.37;39.21
46846;BME280;33947;46.804;134.252;2022-10-13T01:01:40;101722.81;;;13.51;39.42
46846;BME280;33947;46.804;134.252;2022-10-13T01:04:46;101720.03;;;13.57;39.44
46846;BME280;33947;46.804;134.252;2022-10-13T01:07:51;101741.53;;;13.50;39.97
46846;BME280;33947;46.804;134.252;2022-10-13T01:14:35;101738.53;;;13.18;41.02
46846;BME280;33947;46.804;134.252;2022-10-13T01:17:57;101741.75;;;13.36;41.18
46846;BME280;33947;46.804;134.252;2022-10-13T01:24:45;101721.03;;;14.71;39.80
46846;BME280;33947;46.804;134.252;2022-10-13T01:37:54;101689.88;;;15.35;40.04
46846;BME280;33947;46.804;134.252;2022-10-13T01:41:17;101681.09;;;15.61;40.00
46846;BME280;33947;46.804;134.252;2022-10-13T01:44:35;101594.47;;;15.02;41.24
46846;BME280;33947;46.804;134.252;2022-10-13T01:47:42;101670.75;;;15.49;41.88
46846;BME280;33947;46.804;134.252;2022-10-13T01:50:47;101669.28;;;15.39;42.76
46846;BME280;33947;46.804;134.252;2022-10-13T01:53:52;101655.97;;;15.36;43.67
46846;BME280;33947;46.804;134.252;2022-10-13T01:56:57;101646.50;;;15.24;44.39
46846;BME280;33947;46.804;134.252;2022-10-13T02:00:12;101659.91;;;15.22;44.80
46846;BME280;33947;46.804;134.252;2022-10-13T02:03:40;101649.72;;;15.35;45.77
46846;BME280;33947;46.804;134.252;2022-10-13T02:07:09;101671.06;;;15.68;45.48
46846;BME280;33947;46.804;134.252;2022-10-13T02:13:43;101659.72;;;15.60;44.97
46846;BME280;33947;46.804;134.252;2022-10-13T02:17:16;101651.09;;;15.18;45.61
46846;BME280;33947;46.804;134.252;2022-10-13T02:20:20;101657.41;;;15.16;45.70
46846;BME280;33947;46.804;134.252;2022-10-13T02:23:26;101663.63;;;15.48;44.84
46846;BME280;33947;46.804;134.252;2022-10-13T02:26:35;101652.84;;;15.51;45.39
46846;BME280;33947;46.804;134.252;2022-10-13T02:29:55;101644.59;;;15.59;45.81
46846;BME280;33947;46.804;134.252;2022-10-13T02:33:07;101639.78;;;15.69;45.62
46846;BME280;33947;46.804;134.252;2022-10-13T02:36:11;101642.78;;;15.89;45.91
46846;BME280;33947;46.804;134.252;2022-10-13T02:39:16;101645.50;;;15.88;45.85
46846;BME280;33947;46.804;134.252;2022-10-13T02:42:20;101644.78;;;15.81;45.83
46846;BME280;33947;46.804;134.252;2022-10-13T02:45:30;101630.25;;;15.60;46.26
46846;BME280;33947;46.804;134.252;2022-10-13T02:48:34;101627.81;;;15.52;46.47
46846;BME280;33947;46.804;134.252;2022-10-13T02:51:39;101621.97;;;15.68;46.44
46846;BME280;33947;46.804;134.252;2022-10-13T02:54:43;101639.16;;;15.90;46.37
46846;BME280;33947;46.804;134.252;2022-10-13T02:57:48;101628.31;;;15.95;45.74
46846;BME280;33947;46.804;134.252;2022-10-13T03:00:52;101617.50;;;15.98;45.43
46846;BME280;33947;46.804;134.252;2022-10-13T03:03:56;101609.25;;;16.04;45.62
46846;BME280;33947;46.804;134.252;2022-10-13T03:07:01;101616.28;;;16.07;44.91
46846;BME280;33947;46.804;134.252;2022-10-13T03:10:05;101617.22;;;16.06;44.52
46846;BME280;33947;46.804;134.252;2022-10-13T03:13:10;101598.78;;;15.97;45.05
46846;BME280;33947;46.804;134.252;2022-10-13T03:16:14;101591.44;;;16.02;45.08
46846;BME280;33947;46.804;134.252;2022-10-13T03:19:19;101595.28;;;16.22;45.32
46846;BME280;33947;46.804;134.252;2022-10-13T03:22:24;101591.56;;;16.26;45.57
46846;BME280;33947;46.804;134.252;2022-10-13T03:25:28;101581.13;;;16.43;45.20
46846;BME280;33947;46.804;134.252;2022-10-13T03:28:33;101578.97;;;16.28;45.12
46846;BME280;33947;46.804;134.252;2022-10-13T03:31:37;101578.75;;;16.34;44.65
46846;BME280;33947;46.804;134.252;2022-10-13T03:34:42;101582.69;;;16.24;44.77
46846;BME280;33947;46.804;134.252;2022-10-13T03:37:47;101580.75;;;16.29;45.03
46846;BME280;33947;46.804;134.252;2022-10-13T03:40:51;101575.59;;;16.23;45.38
46846;BME280;33947;46.804;134.252;2022-10-13T03:43:56;101575.47;;;16.26;44.99
46846;BME280;33947;46.804;134.252;2022-10-13T03:47:00;101570.00;;;16.29;44.92
46846;BME280;33947;46.804;134.252;2022-10-13T03:50:05;101551.28;;;16.27;45.06
46846;BME280;33947;46.804;134.252;2022-10-13T03:53:10;101553.81;;;16.32;45.31
46846;BME280;33947;46.804;134.252;2022-10-13T03:56:19;101511.34;;;16.19;45.42
46846;BME280;33947;46.804;134.252;2022-10-13T03:59:27;101543.16;;;16.56;44.96
46846;BME280;33947;46.804;134.252;2022-10-13T04:02:38;101534.22;;;16.55;45.29
46846;BME280;33947;46.804;134.252;2022-10-13T04:05:43;101532.75;;;16.72;45.00
46846;BME280;33947;46.804;134.252;2022-10-13T04:08:48;101537.38;;;16.92;44.77
46846;BME280;33947;46.804;134.252;2022-10-13T04:11:52;101516.47;;;16.76;45.17
46846;BME280;33947;46.804;134.252;2022-10-13T04:14:57;101508.53;;;16.97;44.57
46846;BME280;33947;46.804;134.252;2022-10-13T04:18:02;101514.03;;;16.94;45.20
46846;BME280;33947;46.804;134.252;2022-10-13T04:21:13;101516.22;;;16.83;45.50
46846;BME280;33947;46.804;134.252;2022-10-13T04:24:18;101515.13;;;16.88;44.65
46846;BME280;33947;46.804;134.252;2022-10-13T04:27:22;101518.22;;;16.77;44.85
46846;BME280;33947;46.804;134.252;2022-10-13T04:30:26;101513.88;;;16.73;44.95
46846;BME280;33947;46.804;134.252;2022-10-13T04:33:31;101512.53;;;16.61;45.63
46846;BME280;33947;46.804;134.252;2022-10-13T04:36:36;101511.09;;;16.76;45.00
46846;BME280;33947;46.804;134.252;2022-10-13T04:39:40;101511.31;;;16.70;45.17
46846;BME280;33947;46.804;134.252;2022-10-13T04:42:44;101496.56;;;16.82;44.69
46846;BME280;33947;46.804;134.252;2022-10-13T04:45:49;101484.44;;;16.96;44.17
46846;BME280;33947;46.804;134.252;2022-10-13T04:48:54;101490.47;;;17.02;43.74
46846;BME280;33947;46.804;134.252;2022-10-13T04:52:03;101456.72;;;16.95;43.09
46846;BME280;33947;46.804;134.252;2022-10-13T04:55:08;101496.16;;;17.17;43.74
46846;BME280;33947;46.804;134.252;2022-10-13T04:58:12;101485.31;;;17.20;43.22
46846;BME280;33947;46.804;134.252;2022-10-13T05:01:20;101487.56;;;17.09;44.17
46846;BME280;33947;46.804;134.252;2022-10-13T05:04:24;101474.50;;;16.99;43.90
46846;BME280;33947;46.804;134.252;2022-10-13T05:07:30;101475.94;;;17.08;43.56
46846;BME280;33947;46.804;134.252;2022-10-13T05:10:34;101471.88;;;17.20;43.77
46846;BME280;33947;46.804;134.252;2022-10-13T05:13:39;101473.16;;;17.33;43.84
46846;BME280;33947;46.804;134.252;2022-10-13T05:16:43;101462.66;;;17.27;44.07
46846;BME280;33947;46.804;134.252;2022-10-13T05:19:49;101442.81;;;17.31;43.56
46846;BME280;33947;46.804;134.252;2022-10-13T05:22:54;101438.81;;;17.19;43.57
46846;BME280;33947;46.804;134.252;2022-10-13T05:26:01;101436.25;;;17.16;44.06
46846;BME280;33947;46.804;134.252;2022-10-13T05:29:07;101447.50;;;17.26;44.17
46846;BME280;33947;46.804;134.252;2022-10-13T05:32:11;101409.59;;;16.88;44.19
46846;BME280;33947;46.804;134.252;2022-10-13T05:35:16;101427.84;;;17.02;44.17
46846;BME280;33947;46.804;134.252;2022-10-13T05:38:20;101432.13;;;17.07;44.37
46846;BME280;33947;46.804;134.252;2022-10-13T05:41:29;101431.69;;;17.18;44.12
46846;BME280;33947;46.804;134.252;2022-10-13T05:44:34;101441.75;;;17.35;43.50
46846;BME280;33947;46.804;134.252;2022-10-13T05:47:40;101413.69;;;17.20;44.23
46846;BME280;33947;46.804;134.252;2022-10-13T05:50:45;101436.81;;;17.25;44.69
46846;BME280;33947;46.804;134.252;2022-10-13T05:53:54;101423.25;;;17.28;44.82
46846;BME280;33947;46.804;134.252;2022-10-13T05:57:07;101443.34;;;17.40;44.65
46846;BME280;33947;46.804;134.252;2022-10-13T06:00:17;101435.44;;;17.36;44.51
46846;BME280;33947;46.804;134.252;2022-10-13T06:03:22;101423.81;;;17.14;44.41
46846;BME280;33947;46.804;134.252;2022-10-13T06:06:27;101411.47;;;16.86;45.30
46846;BME280;33947;46.804;134.252;2022-10-13T06:09:35;101367.63;;;16.63;45.31
46846;BME280;33947;46.804;134.252;2022-10-13T06:12:40;101421.38;;;17.07;44.88
46846;BME280;33947;46.804;134.252;2022-10-13T06:15:45;101418.56;;;17.11;44.66
46846;BME280;33947;46.804;134.252;2022-10-13T06:18:49;101385.66;;;17.05;44.45
46846;BME280;33947;46.804;134.252;2022-10-13T06:21:54;101404.81;;;16.96;45.56
46846;BME280;33947;46.804;134.252;2022-10-13T06:25:06;101401.91;;;17.02;46.16
46846;BME280;33947;46.804;134.252;2022-10-13T06:28:11;101413.72;;;16.97;46.54
46846;BME280;33947;46.804;134.252;2022-10-13T06:31:16;101404.50;;;17.04;46.41
46846;BME280;33947;46.804;134.252;2022-10-13T06:34:21;101407.41;;;16.99;46.68
46846;BME280;33947;46.804;134.252;2022-10-13T06:37:25;101400.78;;;16.84;47.19
46846;BME280;33947;46.804;134.252;2022-10-13T06:40:30;101406.78;;;16.91;47.33
46846;BME280;33947;46.804;134.252;2022-10-13T06:43:34;101413.22;;;16.87;47.67
46846;BME280;33947;46.804;134.252;2022-10-13T06:46:45;101415.03;;;16.86;48.00
46846;BME280;33947;46.804;134.252;2022-10-13T06:49:49;101413.94;;;16.68;48.45
46846;BME280;33947;46.804;134.252;2022-10-13T06:52:54;101419.97;;;16.73;48.90
46846;BME280;33947;46.804;134.252;2022-10-13T06:56:01;101366.28;;;16.51;48.91
46846;BME280;33947;46.804;134.252;2022-10-13T06:59:06;101397.38;;;16.57;49.54
46846;BME280;33947;46.804;134.252;2022-10-13T07:02:12;101382.38;;;16.51;49.34
46846;BME280;33947;46.804;134.252;2022-10-13T07:05:17;101407.41;;;16.52;49.87
46846;BME280;33947;46.804;134.252;2022-10-13T07:08:22;101393.59;;;16.39;50.11
46846;BME280;33947;46.804;134.252;2022-10-13T07:11:26;101391.53;;;16.45;50.18
46846;BME280;33947;46.804;134.252;2022-10-13T07:14:31;101384.63;;;16.40;49.71
46846;BME280;33947;46.804;134.252;2022-10-13T07:17:35;101383.91;;;16.34;49.94
46846;BME280;33947;46.804;134.252;2022-10-13T07:20:40;101394.94;;;16.27;50.19
46846;BME280;33947;46.804;134.252;2022-10-13T07:23:44;101374.75;;;16.16;50.17
46846;BME280;33947;46.804;134.252;2022-10-13T07:26:49;101382.88;;;16.39;49.51
46846;BME280;33947;46.804;134.252;2022-10-13T07:29:53;101376.44;;;16.19;49.92
46846;BME280;33947;46.804;134.252;2022-10-13T07:32:58;101385.59;;;16.13;50.01
46846;BME280;33947;46.804;134.252;2022-10-13T07:36:03;101382.00;;;16.14;49.91
46846;BME280;33947;46.804;134.252;2022-10-13T07:39:08;101350.31;;;15.75;50.26
46846;BME280;33947;46.804;134.252;2022-10-13T07:42:13;101356.75;;;15.69;50.47
46846;BME280;33947;46.804;134.252;2022-10-13T07:45:17;101372.94;;;15.66;50.63
46846;BME280;33947;46.804;134.252;2022-10-13T07:48:22;101368.56;;;15.63;50.73
46846;BME280;33947;46.804;134.252;2022-10-13T07:51:28;101375.06;;;15.56;50.80
46846;BME280;33947;46.804;134.252;2022-10-13T07:54:32;101382.84;;;15.37;51.22
46846;BME280;33947;46.804;134.252;2022-10-13T07:57:37;101366.88;;;15.34;51.17
46846;BME280;33947;46.804;134.252;2022-10-13T08:00:42;101377.81;;;15.28;51.50
46846;BME280;33947;46.804;134.252;2022-10-13T08:03:46;101378.25;;;15.41;51.16
46846;BME280;33947;46.804;134.252;2022-10-13T08:06:56;101374.13;;;15.30;51.41
46846;BME280;33947;46.804;134.252;2022-10-13T08:10:01;101370.59;;;15.30;51.34
46846;BME280;33947;46.804;134.252;2022-10-13T08:13:05;101375.88;;;15.04;52.03
46846;BME280;33947;46.804;134.252;2022-10-13T08:16:10;101369.88;;;14.96;52.20
46846;BME280;33947;46.804;134.252;2022-10-13T08:19:15;101391.44;;;14.92;52.47
46846;BME280;33947;46.804;134.252;2022-10-13T08:22:20;101360.97;;;14.67;52.66
46846;BME280;33947;46.804;134.252;2022-10-13T08:25:30;101375.03;;;14.74;52.70
46846;BME280;33947;46.804;134.252;2022-10-13T08:28:41;101387.81;;;14.64;53.00
46846;BME280;33947;46.804;134.252;2022-10-13T08:32:05;101390.50;;;14.62;53.00
46846;BME280;33947;46.804;134.252;2022-10-13T08:35:10;101390.09;;;14.46;53.30
46846;BME280;33947;46.804;134.252;2022-10-13T08:38:14;101386.50;;;14.47;53.43
46846;BME280;33947;46.804;134.252;2022-10-13T08:41:23;101395.16;;;14.56;53.29
46846;BME280;33947;46.804;134.252;2022-10-13T08:44:41;101380.28;;;14.47;53.55
46846;BME280;33947;46.804;134.252;2022-10-13T08:48:16;101385.72;;;14.44;53.73
46846;BME280;33947;46.804;134.252;2022-10-13T08:51:22;101402.84;;;14.37;54.27
46846;BME280;33947;46.804;134.252;2022-10-13T08:54:27;101405.78;;;14.27;54.42
46846;BME280;33947;46.804;134.252;2022-10-13T08:57:31;101394.06;;;14.33;54.57
46846;BME280;33947;46.804;134.252;2022-10-13T09:00:37;101412.41;;;14.45;54.51
46846;BME280;33947;46.804;134.252;2022-10-13T09:07:26;101413.41;;;14.10;55.58
46846;BME280;33947;46.804;134.252;2022-10-13T09:10:31;101416.56;;;13.93;55.89
46846;BME280;33947;46.804;134.252;2022-10-13T09:13:38;101407.44;;;14.00;55.87
46846;BME280;33947;46.804;134.252;2022-10-13T09:16:44;101413.81;;;13.94;56.23
46846;BME280;33947;46.804;134.252;2022-10-13T09:20:24;101421.34;;;13.80;56.64
46846;BME280;33947;46.804;134.252;2022-10-13T09:23:30;101414.56;;;13.66;56.80
46846;BME280;33947;46.804;134.252;2022-10-13T09:26:38;101420.59;;;13.37;57.43
46846;BME280;33947;46.804;134.252;2022-10-13T09:29:44;101434.31;;;12.82;58.69
46846;BME280;33947;46.804;134.252;2022-10-13T09:32:48;101424.97;;;12.16;60.56
46846;BME280;33947;46.804;134.252;2022-10-13T09:39:14;101418.50;;;11.81;62.42
46846;BME280;33947;46.804;134.252;2022-10-13T09:42:26;101427.09;;;11.97;60.94
46846;BME280;33947;46.804;134.252;2022-10-13T09:45:41;101424.72;;;11.80;61.04
46846;BME280;33947;46.804;134.252;2022-10-13T09:48:59;101419.88;;;11.52;61.55
46846;BME280;33947;46.804;134.252;2022-10-13T09:52:16;101425.19;;;11.52;61.92
46846;BME280;33947;46.804;134.252;2022-10-13T09:55:33;101424.97;;;11.11;62.40
46846;BME280;33947;46.804;134.252;2022-10-13T09:59:04;101421.31;;;11.19;62.70
46846;BME280;33947;46.804;134.252;2022-10-13T10:02:32;101396.16;;;10.80;62.79
46846;BME280;33947;46.804;134.252;2022-10-13T10:06:04;101412.50;;;10.51;63.62
46846;BME280;33947;46.804;134.252;2022-10-13T10:12:27;101426.78;;;10.40;64.06
46846;BME280;33947;46.804;134.252;2022-10-13T10:15:54;101433.31;;;10.07;66.22
46846;BME280;33947;46.804;134.252;2022-10-13T10:26:21;101439.81;;;9.76;65.71
46846;BME280;33947;46.804;134.252;2022-10-13T10:29:52;101431.84;;;9.75;65.66
46846;BME280;33947;46.804;134.252;2022-10-13T10:33:09;101428.34;;;9.74;65.27
46846;BME280;33947;46.804;134.252;2022-10-13T10:36:20;101407.06;;;9.79;64.86
46846;BME280;33947;46.804;134.252;2022-10-13T10:39:44;101421.16;;;9.84;66.03
46846;BME280;33947;46.804;134.252;2022-10-13T10:46:23;101412.66;;;9.48;66.17
46846;BME280;33947;46.804;134.252;2022-10-13T10:49:35;101355.63;;;8.94;66.19
46846;BME280;33947;46.804;134.252;2022-10-13T10:52:52;101411.81;;;9.41;66.03
46846;BME280;33947;46.804;134.252;2022-10-13T11:06:20;101418.38;;;8.84;68.52
46846;BME280;33947;46.804;134.252;2022-10-13T11:15:56;101408.81;;;8.46;67.89
46846;BME280;33947;46.804;134.252;2022-10-13T11:22:21;101415.84;;;8.64;67.62
46846;BME280;33947;46.804;134.252;2022-10-13T11:28:47;101418.44;;;8.70;67.71
46846;BME280;33947;46.804;134.252;2022-10-13T11:31:53;101426.50;;;8.40;68.57
46846;BME280;33947;46.804;134.252;2022-10-13T11:35:19;101419.53;;;8.08;69.82
46846;BME280;33947;46.804;134.252;2022-10-13T11:38:33;101410.75;;;7.94;69.63
46846;BME280;33947;46.804;134.252;2022-10-13T11:42:29;101407.25;;;7.73;69.90
46846;BME280;33947;46.804;134.252;2022-10-13T11:49:15;101420.50;;;7.65;71.02
46846;BME280;33947;46.804;134.252;2022-10-13T11:59:00;101405.41;;;8.17;68.23
46846;BME280;33947;46.804;134.252;2022-10-13T12:05:26;101425.72;;;8.09;69.32
46846;BME280;33947;46.804;134.252;2022-10-13T12:08:33;101416.94;;;7.90;69.55
46846;BME280;33947;46.804;134.252;2022-10-13T12:11:39;101424.00;;;7.83;69.36
46846;BME280;33947;46.804;134.252;2022-10-13T12:14:46;101420.50;;;7.51;70.00
46846;BME280;33947;46.804;134.252;2022-10-13T12:17:52;101432.84;;;7.60;70.00
46846;BME280;33947;46.804;134.252;2022-10-13T12:21:01;101412.53;;;7.36;70.46
46846;BME280;33947;46.804;134.252;2022-10-13T12:24:11;101426.66;;;7.50;70.29
46846;BME280;33947;46.804;134.252;2022-10-13T12:27:20;101425.78;;;7.39;70.82
46846;BME280;33947;46.804;134.252;2022-10-13T12:30:33;101437.19;;;7.16;71.40
46846;BME280;33947;46.804;134.252;2022-10-13T12:33:41;101440.72;;;7.09;71.86
46846;BME280;33947;46.804;134.252;2022-10-13T12:37:01;101429.28;;;7.35;71.19
46846;BME280;33947;46.804;134.252;2022-10-13T12:40:11;101425.69;;;6.95;71.63
46846;BME280;33947;46.804;134.252;2022-10-13T12:43:21;101431.03;;;7.33;70.92
46846;BME280;33947;46.804;134.252;2022-10-13T12:46:42;101437.22;;;7.36;71.09
46846;BME280;33947;46.804;134.252;2022-10-13T12:49:47;101404.59;;;7.08;70.46
46846;BME280;33947;46.804;134.252;2022-10-13T12:53:13;101448.53;;;6.73;73.48
46846;BME280;33947;46.804;134.252;2022-10-13T12:56:28;101413.28;;;6.62;73.15
46846;BME280;33947;46.804;134.252;2022-10-13T12:59:40;101431.88;;;6.94;72.02
46846;BME280;33947;46.804;134.252;2022-10-13T13:02:54;101430.06;;;6.72;73.68
46846;BME280;33947;46.804;134.252;2022-10-13T13:09:40;101435.31;;;6.69;73.81
46846;BME280;33947;46.804;134.252;2022-10-13T13:12:47;101437.00;;;6.54;73.51
46846;BME280;33947;46.804;134.252;2022-10-13T13:15:53;101432.50;;;6.25;74.43
46846;BME280;33947;46.804;134.252;2022-10-13T13:18:57;101432.66;;;6.61;73.75
46846;BME280;33947;46.804;134.252;2022-10-13T13:22:04;101445.00;;;6.66;73.02
46846;BME280;33947;46.804;134.252;2022-10-13T13:25:08;101437.13;;;6.82;71.91
46846;BME280;33947;46.804;134.252;2022-10-13T13:28:14;101433.44;;;6.43;73.44
46846;BME280;33947;46.804;134.252;2022-10-13T13:31:19;101440.41;;;6.30;75.37
46846;BME280;33947;46.804;134.252;2022-10-13T13:34:25;101433.31;;;6.21;76.86
46846;BME280;33947;46.804;134.252;2022-10-13T13:37:34;101435.19;;;6.42;73.91
46846;BME280;33947;46.804;134.252;2022-10-13T13:40:40;101429.91;;;6.42;73.67
46846;BME280;33947;46.804;134.252;2022-10-13T13:43:47;101433.44;;;6.36;73.60
46846;BME280;33947;46.804;134.252;2022-10-13T13:46:51;101391.91;;;6.01;74.05
46846;BME280;33947;46.804;134.252;2022-10-13T13:49:56;101411.31;;;6.08;74.21
46846;BME280;33947;46.804;134.252;2022-10-13T13:53:01;101419.25;;;6.14;73.73
46846;BME280;33947;46.804;134.252;2022-10-13T13:56:11;101415.81;;;6.32;74.02
46846;BME280;33947;46.804;134.252;2022-10-13T13:59:16;101420.88;;;5.98;74.97
46846;BME280;33947;46.804;134.252;2022-10-13T14:02:21;101412.16;;;6.08;74.47
46846;BME280;33947;46.804;134.252;2022-10-13T14:05:25;101419.19;;;6.06;73.82
46846;BME280;33947;46.804;134.252;2022-10-13T14:08:31;101420.94;;;6.04;74.39
46846;BME280;33947;46.804;134.252;2022-10-13T14:11:36;101396.31;;;6.02;73.92
46846;BME280;33947;46.804;134.252;2022-10-13T14:14:41;101412.13;;;6.01;74.21
46846;BME280;33947;46.804;134.252;2022-10-13T14:17:46;101412.75;;;5.70;76.37
46846;BME280;33947;46.804;134.252;2022-10-13T14:20:50;101396.16;;;5.82;75.77
46846;BME280;33947;46.804;134.252;2022-10-13T14:23:55;101397.91;;;5.82;75.95
46846;BME280;33947;46.804;134.252;2022-10-13T14:27:00;101410.41;;;6.07;75.23
46846;BME280;33947;46.804;134.252;2022-10-13T14:30:06;101414.84;;;6.13;75.68
46846;BME280;33947;46.804;134.252;2022-10-13T14:33:11;101409.69;;;6.40;75.91
46846;BME280;33947;46.804;134.252;2022-10-13T14:36:15;101408.91;;;6.65;77.18
46846;BME280;33947;46.804;134.252;2022-10-13T14:39:20;101403.75;;;7.38;75.47
46846;BME280;33947;46.804;134.252;2022-10-13T14:42:24;101400.22;;;7.78;74.87
46846;BME280;33947;46.804;134.252;2022-10-13T14:45:29;101401.00;;;8.16;74.71
46846;BME280;33947;46.804;134.252;2022-10-13T14:48:35;101406.25;;;8.30;76.06
46846;BME280;33947;46.804;134.252;2022-10-13T14:51:40;101408.78;;;8.49;80.37
46846;BME280;33947;46.804;134.252;2022-10-13T14:54:45;101414.09;;;8.49;76.74
46846;BME280;33947;46.804;134.252;2022-10-13T14:57:49;101393.81;;;8.56;76.24
46846;BME280;33947;46.804;134.252;2022-10-13T15:00:54;101411.41;;;8.66;76.58
46846;BME280;33947;46.804;134.252;2022-10-13T15:03:59;101394.69;;;8.56;77.47
46846;BME280;33947;46.804;134.252;2022-10-13T15:07:05;101407.84;;;8.72;77.64
46846;BME280;33947;46.804;134.252;2022-10-13T15:10:10;101404.22;;;8.88;78.08
46846;BME280;33947;46.804;134.252;2022-10-13T15:13:15;101412.94;;;9.10;77.82
46846;BME280;33947;46.804;134.252;2022-10-13T15:16:22;101416.38;;;9.20;78.65
46846;BME280;33947;46.804;134.252;2022-10-13T15:19:26;101401.31;;;9.29;78.05
46846;BME280;33947;46.804;134.252;2022-10-13T15:22:32;101406.59;;;9.32;78.28
46846;BME280;33947;46.804;134.252;2022-10-13T15:25:36;101408.38;;;9.26;80.96
46846;BME280;33947;46.804;134.252;2022-10-13T15:28:50;101401.34;;;9.24;80.45
46846;BME280;33947;46.804;134.252;2022-10-13T15:32:15;101407.50;;;9.31;80.33
46846;BME280;33947;46.804;134.252;2022-10-13T15:35:29;101405.69;;;9.31;79.72
46846;BME280;33947;46.804;134.252;2022-10-13T15:38:36;101407.50;;;9.31;79.33
46846;BME280;33947;46.804;134.252;2022-10-13T15:41:40;101408.34;;;9.33;79.80
46846;BME280;33947;46.804;134.252;2022-10-13T15:44:45;101420.63;;;9.43;79.91
46846;BME280;33947;46.804;134.252;2022-10-13T15:48:10;101426.78;;;9.48;80.30
46846;BME280;33947;46.804;134.252;2022-10-13T15:51:17;101406.50;;;9.41;80.26
46846;BME280;33947;46.804;134.252;2022-10-13T15:54:22;101416.19;;;9.50;80.46
46846;BME280;33947;46.804;134.252;2022-10-13T15:57:28;101415.28;;;9.49;80.37
46846;BME280;33947;46.804;134.252;2022-10-13T16:00:33;101411.78;;;9.49;80.89
46846;BME280;33947;46.804;134.252;2022-10-13T16:03:38;101419.72;;;9.46;82.31
46846;BME280;33947;46.804;134.252;2022-10-13T16:06:42;101406.47;;;9.47;80.84
46846;BME280;33947;46.804;134.252;2022-10-13T16:09:47;101409.09;;;9.50;81.16
46846;BME280;33947;46.804;134.252;2022-10-13T16:12:51;101418.94;;;9.36;82.58
46846;BME280;33947;46.804;134.252;2022-10-13T16:15:59;101402.91;;;9.47;82.13
46846;BME280;33947;46.804;134.252;2022-10-13T16:19:04;101413.47;;;9.56;82.00
46846;BME280;33947;46.804;134.252;2022-10-13T16:22:10;101423.13;;;9.62;82.61
46846;BME280;33947;46.804;134.252;2022-10-13T16:25:15;101406.31;;;9.63;82.33
46846;BME280;33947;46.804;134.252;2022-10-13T16:28:19;101409.88;;;9.62;83.01
46846;BME280;33947;46.804;134.252;2022-10-13T16:31:24;101402.84;;;9.54;83.58
46846;BME280;33947;46.804;134.252;2022-10-13T16:34:29;101405.53;;;9.53;83.21
46846;BME280;33947;46.804;134.252;2022-10-13T16:37:33;101417.13;;;9.39;83.74
46846;BME280;33947;46.804;134.252;2022-10-13T16:40:38;101419.88;;;9.25;86.45
46846;BME280;33947;46.804;134.252;2022-10-13T16:43:44;101418.03;;;9.40;85.00
46846;BME280;33947;46.804;134.252;2022-10-13T16:46:48;101418.06;;;9.34;86.44
46846;BME280;33947;46.804;134.252;2022-10-13T16:49:54;101382.03;;;9.08;85.31
46846;BME280;33947;46.804;134.252;2022-10-13T16:52:59;101415.47;;;9.26;86.19
46846;BME280;33947;46.804;134.252;2022-10-13T16:56:06;101425.09;;;9.38;85.80
46846;BME280;33947;46.804;134.252;2022-10-13T16:59:11;101427.66;;;9.50;84.46
46846;BME280;33947;46.804;134.252;2022-10-13T17:02:16;101416.19;;;9.47;85.83
46846;BME280;33947;46.804;134.252;2022-10-13T17:05:21;101424.13;;;9.47;85.58
46846;BME280;33947;46.804;134.252;2022-10-13T17:08:28;101425.91;;;9.46;85.82
46846;BME280;33947;46.804;134.252;2022-10-13T17:11:35;101411.84;;;9.38;84.95
46846;BME280;33947;46.804;134.252;2022-10-13T17:14:40;101431.41;;;9.18;89.66
46846;BME280;33947;46.804;134.252;2022-10-13T17:17:45;101418.03;;;9.37;86.41
46846;BME280;33947;46.804;134.252;2022-10-13T17:21:00;101424.09;;;9.53;87.23
46846;BME280;33947;46.804;134.252;2022-10-13T17:24:05;101357.97;;;9.31;85.96